Time;durP1;ratioP1;P1;durP2;ratioP2;P2;SDS_P1;SDS_P2;PMS_P1;PMS_P2;Temp;Humidity;BMP_temperature;BMP_pressure;BME280_temperature;BME280_humidity;BME280_pressure;Samples;Min_cycle;Max_cycle;Signal;HPM_P1;HPM_P2
2021/10/16 00:01:54;;;;;;;8.40;7.70;;;7.70;99.90;;;8.66;90.73;98292.38;5199529;28;20214;-64
2021/10/16 00:04:27;;;;;;;7.50;6.90;;;7.70;99.90;;;8.62;90.44;98292.06;5202375;28;20238;-64
2021/10/16 00:07:01;;;;;;;8.70;7.97;;;7.70;99.90;;;8.60;90.32;98304.69;5202133;28;20240;-64
2021/10/16 00:09:34;;;;;;;8.43;7.77;;;7.60;99.90;;;8.55;90.35;98309.44;5204016;28;20200;-64
2021/10/16 00:12:08;;;;;;;8.80;8.20;;;7.60;99.90;;;8.55;90.17;98311.97;5207705;28;20296;-64
2021/10/16 00:14:42;;;;;;;9.43;8.53;;;7.60;99.90;;;8.51;90.46;98312.56;5207886;28;20249;-64
2021/10/16 00:17:15;;;;;;;8.03;7.43;;;7.60;99.90;;;8.51;90.39;98312.56;5204392;28;20204;-64
2021/10/16 00:19:48;;;;;;;8.37;7.73;;;7.60;99.90;;;8.52;91.00;98311.75;5203400;28;20564;-64
2021/10/16 00:22:22;;;;;;;8.30;7.70;;;7.60;99.90;;;8.53;91.20;98305.03;5206355;28;20587;-64
2021/10/16 00:24:55;;;;;;;7.93;7.33;;;7.70;99.90;;;8.61;91.38;98305.56;5203187;28;20235;-64
2021/10/16 00:27:28;;;;;;;9.47;8.30;;;7.70;99.90;;;8.68;91.47;98315.44;5207340;28;20194;-64
2021/10/16 00:30:01;;;;;;;8.80;8.10;;;7.80;99.90;;;8.73;91.05;98315.00;5206570;28;20631;-64
2021/10/16 00:32:35;;;;;;;8.70;7.90;;;7.80;99.90;;;8.79;91.22;98302.69;5205886;28;20194;-64
2021/10/16 00:35:09;;;;;;;8.73;8.03;;;7.80;99.90;;;8.79;90.84;98312.88;5206588;28;20308;-64
2021/10/16 00:37:43;;;;;;;9.80;8.90;;;7.90;99.90;;;8.87;89.76;98315.97;5206922;28;20694;-64
2021/10/16 00:40:16;;;;;;;10.20;9.27;;;7.80;99.90;;;8.86;89.92;98311.63;5206735;28;20197;-64
2021/10/16 00:42:52;;;;;;;10.30;9.27;;;7.80;99.90;;;8.84;89.77;98302.97;5206415;28;20646;-64
2021/10/16 00:45:27;;;;;;;10.00;9.00;;;7.80;99.90;;;8.83;90.21;98296.13;5206228;28;20225;-64
2021/10/16 00:48:00;;;;;;;10.53;9.53;;;7.80;99.90;;;8.76;90.30;98310.09;5206727;28;20679;-64
2021/10/16 00:50:33;;;;;;;10.40;8.77;;;7.80;99.90;;;8.72;90.40;98307.22;5207835;28;20280;-64
2021/10/16 00:53:08;;;;;;;9.47;8.67;;;7.80;99.90;;;8.72;90.45;98302.13;5206456;28;20578;-64
2021/10/16 00:55:42;;;;;;;9.60;8.70;;;7.80;99.90;;;8.73;90.60;98293.72;5205517;28;20200;-64
2021/10/16 00:58:15;;;;;;;11.13;10.20;;;7.90;99.90;;;8.75;90.63;98307.44;5206231;28;20210;-64
2021/10/16 01:00:48;;;;;;;9.53;8.70;;;7.80;99.90;;;8.77;90.91;98301.69;5206343;28;20297;-64
2021/10/16 01:03:22;;;;;;;9.53;8.63;;;7.90;99.90;;;8.79;90.66;98294.16;5206782;28;20665;-64
2021/10/16 01:05:55;;;;;;;8.67;7.97;;;7.90;99.90;;;8.79;90.85;98299.25;5206977;28;20312;-64
2021/10/16 01:08:30;;;;;;;8.63;7.83;;;7.90;99.90;;;8.83;90.44;98297.78;5206493;28;20301;-64
2021/10/16 01:11:03;;;;;;;8.50;7.77;;;7.90;99.90;;;8.83;90.80;98295.25;5205104;28;20201;-64
2021/10/16 01:13:38;;;;;;;9.07;8.27;;;7.80;99.90;;;8.78;90.95;98277.06;5205933;28;20222;-64
2021/10/16 01:16:12;;;;;;;8.30;7.60;;;7.90;99.90;;;8.73;91.86;98281.84;5206002;28;20194;-60
2021/10/16 01:18:45;;;;;;;7.30;6.70;;;7.90;99.90;;;8.69;91.83;98284.06;5206514;28;20209;-63
2021/10/16 01:21:20;;;;;;;9.03;8.23;;;7.80;99.90;;;8.67;91.55;98277.97;5205171;28;20198;-62
2021/10/16 01:23:53;;;;;;;8.27;7.60;;;7.80;99.90;;;8.67;91.67;98283.06;5201527;28;20300;-62
2021/10/16 01:26:29;;;;;;;8.37;7.67;;;7.80;99.90;;;8.68;91.45;98279.75;5204792;28;20214;-62
2021/10/16 01:29:02;;;;;;;8.13;7.37;;;7.80;99.90;;;8.70;91.36;98279.09;5205598;28;20205;-63
2021/10/16 01:31:38;;;;;;;7.80;7.20;;;7.80;99.90;;;8.72;91.64;98276.63;5202735;28;20640;-62
2021/10/16 01:34:11;;;;;;;8.03;7.33;;;7.90;99.90;;;8.76;91.39;98268.44;5205503;28;20623;-63
2021/10/16 01:36:49;;;;;;;8.00;7.30;;;7.90;99.90;;;8.77;91.45;98275.31;5204736;28;20202;-62
2021/10/16 01:39:24;;;;;;;7.97;7.37;;;7.90;99.90;;;8.76;91.37;98271.88;5205866;28;20197;-61
2021/10/16 01:41:57;;;;;;;8.37;7.67;;;7.90;99.90;;;8.73;91.54;98271.66;5205067;28;20552;-62
2021/10/16 01:44:31;;;;;;;8.13;7.37;;;7.80;99.90;;;8.76;91.55;98265.91;5205990;28;20221;-62
2021/10/16 01:47:04;;;;;;;8.90;8.10;;;7.80;99.90;;;8.74;92.16;98273.44;5204829;28;20228;-62
2021/10/16 01:49:37;;;;;;;7.97;7.17;;;7.90;99.90;;;8.73;92.35;98274.22;5205133;28;20273;-62
2021/10/16 01:52:12;;;;;;;8.17;7.53;;;7.90;99.90;;;8.77;92.02;98265.13;5204794;28;20202;-63
2021/10/16 01:54:45;;;;;;;8.40;7.70;;;7.90;99.90;;;8.79;91.72;98263.56;5204699;28;20221;-63
2021/10/16 01:57:18;;;;;;;9.13;8.33;;;7.90;99.90;;;8.77;91.60;98267.66;5204919;28;20208;-62
2021/10/16 01:59:51;;;;;;;9.37;8.57;;;7.80;99.90;;;8.71;92.20;98262.13;5205778;28;20211;-62
2021/10/16 02:02:24;;;;;;;9.20;8.30;;;7.80;99.90;;;8.74;91.85;98264.91;5199437;28;20198;-62
2021/10/16 02:04:57;;;;;;;8.93;8.20;;;7.80;99.90;;;8.73;91.83;98253.81;5204286;28;20226;-63
2021/10/16 02:07:31;;;;;;;7.97;7.27;;;7.90;99.90;;;8.69;92.05;98256.03;5205582;28;20198;-62
2021/10/16 02:10:06;;;;;;;8.53;7.83;;;7.80;99.90;;;8.60;92.00;98261.38;5205342;28;20193;-62
2021/10/16 02:12:39;;;;;;;8.93;8.03;;;7.80;99.90;;;8.58;92.26;98252.72;5204692;28;20205;-62
2021/10/16 02:15:12;;;;;;;7.90;7.23;;;7.80;99.90;;;8.61;91.95;98268.22;5204398;28;20218;-62
2021/10/16 02:17:45;;;;;;;8.07;7.47;;;7.80;99.90;;;8.56;91.91;98262.81;5203962;28;20293;-62
2021/10/16 02:20:18;;;;;;;8.87;8.10;;;7.80;99.90;;;8.59;92.07;98257.06;5204690;28;20297;-62
2021/10/16 02:22:53;;;;;;;9.03;8.33;;;7.80;99.90;;;8.60;92.13;98258.81;5204525;28;20210;-62
2021/10/16 02:25:26;;;;;;;9.03;8.33;;;7.80;99.90;;;8.53;92.33;98259.19;5199560;28;20584;-62
2021/10/16 02:28:00;;;;;;;9.73;8.83;;;7.70;99.90;;;8.53;92.39;98265.16;5205102;28;20642;-61
2021/10/16 02:30:33;;;;;;;9.40;8.60;;;7.70;99.90;;;8.49;93.28;98268.25;5203739;28;20292;-63
2021/10/16 02:33:06;;;;;;;10.03;9.13;;;7.60;99.90;;;8.51;93.22;98266.69;5203928;28;20654;-63
2021/10/16 02:35:39;;;;;;;9.83;9.03;;;7.70;99.90;;;8.46;94.83;98268.03;5205134;28;20316;-63
2021/10/16 02:38:14;;;;;;;9.20;8.40;;;7.70;99.90;;;8.49;93.58;98270.78;5204708;28;20205;-62
2021/10/16 02:40:47;;;;;;;9.73;8.83;;;7.70;99.90;;;8.40;93.54;98262.50;5203729;28;20197;-62
2021/10/16 02:43:20;;;;;;;8.87;8.17;;;7.50;99.90;;;8.40;93.44;98272.69;5202961;28;20217;-63
2021/10/16 02:45:53;;;;;;;9.23;8.30;;;7.50;99.90;;;8.40;93.96;98271.81;5204472;28;20308;-63
2021/10/16 02:48:26;;;;;;;8.57;7.87;;;7.60;99.90;;;8.39;93.47;98275.13;5200560;28;20297;-63
2021/10/16 02:50:59;;;;;;;8.97;8.17;;;7.60;99.90;;;8.44;93.47;98269.59;5204384;28;20649;-62
2021/10/16 02:53:35;;;;;;;8.83;8.03;;;7.60;99.90;;;8.48;93.46;98271.56;5200934;28;20221;-62
2021/10/16 02:56:08;;;;;;;9.37;8.47;;;7.60;99.90;;;8.53;93.11;98272.78;5204024;28;20229;-63
2021/10/16 02:58:41;;;;;;;8.50;7.80;;;7.60;99.90;;;8.47;93.51;98280.00;5204538;28;20578;-62
2021/10/16 03:01:14;;;;;;;9.07;8.27;;;7.60;99.90;;;8.47;93.05;98272.38;5204665;28;20292;-62
2021/10/16 03:03:47;;;;;;;8.37;7.67;;;7.60;99.90;;;8.47;93.12;98277.47;5201579;28;20229;-62
2021/10/16 03:06:21;;;;;;;9.57;8.60;;;7.60;99.90;;;8.52;93.29;98277.78;5204079;28;20308;-63
2021/10/16 03:08:55;;;;;;;7.77;7.13;;;7.60;99.90;;;8.53;93.04;98282.09;5202157;28;20289;-62
2021/10/16 03:11:28;;;;;;;8.33;7.60;;;7.60;99.90;;;8.56;92.75;98278.13;5202812;28;20204;-62
2021/10/16 03:14:02;;;;;;;8.93;8.13;;;7.60;99.90;;;8.59;92.53;98279.13;5204191;28;20267;-62
2021/10/16 03:16:35;;;;;;;8.47;7.67;;;7.60;99.90;;;8.55;91.93;98275.44;5201957;28;20198;-63
2021/10/16 03:19:08;;;;;;;7.57;6.97;;;7.50;99.90;;;8.50;91.98;98275.13;5202841;28;20574;-62
2021/10/16 03:21:41;;;;;;;8.47;7.67;;;7.50;99.90;;;8.57;91.45;98276.44;5203941;28;20201;-62
2021/10/16 03:24:15;;;;;;;7.50;7.00;;;7.50;99.90;;;8.53;91.36;98275.34;5202716;28;20771;-63
2021/10/16 03:26:48;;;;;;;8.70;7.87;;;7.50;99.90;;;8.53;91.37;98275.34;5203955;28;20896;-61
2021/10/16 03:29:21;;;;;;;8.67;7.87;;;7.50;99.90;;;8.50;91.40;98274.25;5204284;28;20563;-62
2021/10/16 03:31:55;;;;;;;9.00;8.30;;;7.50;99.90;;;8.44;91.67;98273.78;5202321;28;20305;-61
2021/10/16 03:34:29;;;;;;;7.93;7.27;;;7.40;99.90;;;8.42;91.80;98276.25;5203952;28;20227;-62
2021/10/16 03:37:03;;;;;;;7.90;7.23;;;7.40;99.90;;;8.37;92.18;98266.47;5203908;28;20617;-62
2021/10/16 03:39:38;;;;;;;7.87;7.17;;;7.50;99.90;;;8.33;92.26;98271.34;5203618;28;20642;-62
2021/10/16 03:42:11;;;;;;;8.93;8.10;;;7.40;99.90;;;8.36;92.33;98275.75;5199683;28;20292;-62
2021/10/16 03:44:44;;;;;;;8.47;7.70;;;7.50;99.90;;;8.38;92.08;98274.19;5203379;28;20224;-63
2021/10/16 03:47:17;;;;;;;9.10;8.30;;;7.40;99.90;;;8.35;92.32;98273.97;5205150;28;20217;-62
2021/10/16 03:49:50;;;;;;;8.70;7.90;;;7.40;99.90;;;8.27;92.57;98270.91;5207842;28;20202;-62
2021/10/16 03:52:23;;;;;;;8.30;7.67;;;7.40;99.90;;;8.22;92.12;98273.88;5208349;28;20198;-62
2021/10/16 03:54:58;;;;;;;8.77;8.00;;;7.30;99.90;;;8.21;92.52;98269.53;5206797;28;20221;-62
2021/10/16 03:57:31;;;;;;;9.17;8.27;;;7.40;99.90;;;8.19;92.95;98272.00;5204716;28;20723;-60
2021/10/16 04:00:11;;;;;;;9.33;8.53;;;7.40;99.90;;;8.16;92.78;98269.22;5206927;28;20197;-62
2021/10/16 04:02:47;;;;;;;9.60;8.80;;;7.30;99.90;;;8.16;92.87;98271.78;5205654;28;20654;-62
2021/10/16 04:05:20;;;;;;;9.57;8.83;;;7.30;99.90;;;8.23;92.81;98278.19;5207613;28;20673;-62
2021/10/16 04:07:53;;;;;;;8.70;7.93;;;7.30;99.90;;;8.19;92.76;98278.75;5206165;28;20221;-62
2021/10/16 04:10:27;;;;;;;9.73;8.83;;;7.30;99.90;;;8.19;92.74;98277.09;5206156;28;20721;-62
2021/10/16 04:13:01;;;;;;;9.50;8.70;;;7.30;99.90;;;8.19;92.78;98281.31;5206983;28;20704;-62
2021/10/16 04:15:34;;;;;;;8.37;7.77;;;7.30;99.90;;;8.20;92.64;98277.97;5205441;28;20217;-60
2021/10/16 04:18:07;;;;;;;9.67;8.67;;;7.30;99.90;;;8.19;92.17;98282.19;5205440;28;20224;-62
2021/10/16 04:20:40;;;;;;;8.77;8.07;;;7.30;99.90;;;8.21;92.37;98285.72;5204244;28;20637;-62
2021/10/16 04:23:13;;;;;;;8.80;8.10;;;7.30;99.90;;;8.18;92.51;98293.13;5202218;28;20216;-62
2021/10/16 04:25:49;;;;;;;9.07;8.37;;;7.30;99.90;;;8.17;92.33;98298.13;5207536;28;20221;-63
2021/10/16 04:28:22;;;;;;;9.43;8.53;;;7.30;99.90;;;8.06;92.38;98299.88;5201593;28;20236;-62
2021/10/16 04:30:55;;;;;;;9.47;8.67;;;7.20;99.90;;;8.08;92.75;98294.13;5205737;28;20301;-62
2021/10/16 04:33:28;;;;;;;9.80;8.90;;;7.30;99.90;;;8.09;92.69;98292.44;5202979;28;20229;-62
2021/10/16 04:36:03;;;;;;;9.30;8.40;;;7.30;99.90;;;8.12;92.96;98292.66;5203462;28;20207;-62
2021/10/16 04:38:36;;;;;;;9.50;8.70;;;7.30;99.90;;;8.16;92.96;98301.44;5206448;28;20189;-62
2021/10/16 04:41:10;;;;;;;9.70;8.90;;;7.30;99.90;;;8.13;93.01;98297.88;5198090;28;20207;-63
2021/10/16 04:43:44;;;;;;;9.20;8.40;;;7.30;99.90;;;8.13;92.99;98302.97;5199130;28;20217;-63
2021/10/16 04:46:17;;;;;;;10.00;9.00;;;7.30;99.90;;;8.13;92.77;98300.44;5205995;28;20301;-62
2021/10/16 04:48:51;;;;;;;9.90;8.93;;;7.20;99.90;;;8.14;93.13;98303.88;5206776;28;20198;-62
2021/10/16 04:51:24;;;;;;;9.33;8.53;;;7.30;99.90;;;8.15;93.05;98302.19;5206110;28;20198;-62
2021/10/16 04:53:57;;;;;;;9.87;9.03;;;7.30;99.90;;;8.21;92.86;98302.63;5206617;28;20232;-62
2021/10/16 04:56:32;;;;;;;10.07;9.17;;;7.30;99.90;;;8.17;93.46;98295.56;5204314;28;20642;-62
2021/10/16 04:59:05;;;;;;;9.50;8.70;;;7.40;99.90;;;8.24;93.50;98295.22;5204887;28;20217;-62
2021/10/16 05:01:38;;;;;;;9.47;8.67;;;7.40;99.90;;;8.24;93.60;98296.13;5203365;28;20210;-62
2021/10/16 05:04:11;;;;;;;8.83;8.00;;;7.40;99.90;;;8.17;94.04;98298.13;5200729;28;20248;-62
2021/10/16 05:06:44;;;;;;;10.47;9.50;;;7.40;99.90;;;8.02;93.42;98298.75;5205504;28;20610;-62
2021/10/16 05:09:17;;;;;;;9.83;8.93;;;7.30;99.90;;;8.09;93.15;98295.88;5206628;28;20284;-61
2021/10/16 05:11:52;;;;;;;10.07;9.23;;;7.30;99.90;;;8.09;93.46;98295.88;5206685;28;20198;-62
2021/10/16 05:14:25;;;;;;;9.50;8.67;;;7.30;99.90;;;8.00;93.25;98292.66;5205987;28;20228;-62
2021/10/16 05:16:58;;;;;;;9.50;8.60;;;7.20;99.90;;;8.06;91.74;98285.47;5201758;28;20702;-62
2021/10/16 05:19:32;;;;;;;10.10;9.30;;;7.10;99.90;;;7.95;92.26;98288.88;5205382;28;20581;-62
2021/10/16 05:22:05;;;;;;;9.73;8.77;;;7.10;99.90;;;7.88;93.19;98290.09;5206513;28;20209;-62
2021/10/16 05:24:38;;;;;;;9.57;8.87;;;7.10;99.90;;;7.87;93.45;98292.53;5205797;28;20264;-61
2021/10/16 05:27:12;;;;;;;10.33;9.43;;;7.10;99.90;;;7.80;93.34;98285.22;5205841;28;20595;-62
2021/10/16 05:29:45;;;;;;;10.03;9.20;;;7.00;99.90;;;7.87;93.45;98283.25;5205325;28;20208;-61
2021/10/16 05:32:18;;;;;;;9.90;9.10;;;7.00;99.90;;;7.77;93.18;98288.41;5201715;28;20202;-62
2021/10/16 05:34:51;;;;;;;10.63;9.63;;;6.90;99.90;;;7.79;93.91;98288.53;5204156;28;20593;-61
2021/10/16 05:37:25;;;;;;;11.47;10.07;;;6.90;99.90;;;7.68;93.93;98283.53;5201924;28;20194;-61
2021/10/16 05:39:58;;;;;;;10.10;9.30;;;6.90;99.90;;;7.68;94.63;98290.28;5205868;28;20284;-60
2021/10/16 05:42:32;;;;;;;10.30;9.50;;;6.90;99.90;;;7.74;94.55;98293.28;5206016;28;20198;-62
2021/10/16 05:45:07;;;;;;;10.73;9.87;;;7.00;99.90;;;7.80;94.73;98296.28;5204434;28;20222;-62
2021/10/16 05:47:41;;;;;;;11.23;10.23;;;7.10;99.90;;;7.85;94.65;98299.16;5202060;28;20251;-62
2021/10/16 05:50:14;;;;;;;12.07;11.00;;;7.10;99.90;;;7.92;94.46;98303.03;5203698;28;20197;-62
2021/10/16 05:52:47;;;;;;;11.87;10.77;;;7.20;99.90;;;7.94;94.76;98307.47;5204306;28;20252;-62
2021/10/16 05:55:20;;;;;;;12.27;11.17;;;7.20;99.90;;;7.95;94.94;98301.59;5205153;28;20222;-61
2021/10/16 05:57:55;;;;;;;13.27;12.07;;;7.20;99.90;;;8.01;94.75;98302.09;5204216;28;20193;-62
2021/10/16 06:00:28;;;;;;;12.63;11.43;;;7.30;99.90;;;8.03;94.37;98313.25;5202052;28;20307;-62
2021/10/16 06:03:01;;;;;;;13.13;11.93;;;7.20;99.90;;;8.02;94.71;98308.94;5201532;28;20233;-63
2021/10/16 06:05:36;;;;;;;12.70;11.60;;;7.20;99.90;;;8.18;94.11;98312.59;5203555;28;20202;-62
2021/10/16 06:08:09;;;;;;;13.43;12.23;;;7.30;99.90;;;8.06;94.89;98315.13;5201374;28;20587;-65
2021/10/16 06:10:42;;;;;;;12.63;11.37;;;7.30;99.90;;;8.02;94.67;98320.78;5203440;28;20621;-63
2021/10/16 06:13:16;;;;;;;12.43;11.33;;;7.30;99.90;;;7.95;95.28;98324.50;5200366;28;20210;-63
2021/10/16 06:15:50;;;;;;;12.40;11.30;;;7.20;99.90;;;7.98;94.85;98322.19;5199446;28;20202;-63
2021/10/16 06:18:25;;;;;;;12.50;11.40;;;7.20;99.90;;;8.00;95.17;98325.75;5201151;28;20201;-63
2021/10/16 06:20:58;;;;;;;11.03;10.13;;;7.20;99.90;;;7.99;95.04;98325.66;5198052;28;20666;-63
2021/10/16 06:23:31;;;;;;;11.20;10.20;;;7.20;99.90;;;8.09;94.65;98336.59;5198781;28;20218;-63
2021/10/16 06:26:04;;;;;;;12.83;11.63;;;7.30;99.90;;;8.12;94.29;98335.94;5203681;28;20206;-63
2021/10/16 06:28:39;;;;;;;13.00;11.80;;;7.30;99.90;;;8.10;94.60;98337.53;5199655;28;20613;-63
2021/10/16 06:31:12;;;;;;;13.00;11.73;;;7.30;99.90;;;8.29;94.34;98335.53;5201617;28;20205;-63
2021/10/16 06:33:45;;;;;;;11.90;10.90;;;7.40;99.90;;;8.46;93.57;98333.38;5202677;28;20332;-63
2021/10/16 06:36:18;;;;;;;12.83;11.63;;;7.60;99.90;;;8.67;93.30;98334.94;5199189;28;20304;-62
2021/10/16 06:38:51;;;;;;;13.80;12.60;;;7.80;99.90;;;8.76;92.61;98339.81;5200396;28;20302;-63
2021/10/16 06:41:24;;;;;;;11.90;10.97;;;7.90;99.90;;;8.77;91.83;98336.47;5203953;28;20222;-63
2021/10/16 06:43:58;;;;;;;12.77;11.67;;;7.90;99.90;;;8.81;91.65;98343.53;5201046;28;20237;-63
2021/10/16 06:46:31;;;;;;;11.57;10.50;;;8.00;99.90;;;8.87;91.38;98338.91;5199918;28;20201;-63
2021/10/16 06:49:04;;;;;;;11.77;10.77;;;8.00;99.90;;;8.96;90.81;98349.75;5201485;28;20697;-63
2021/10/16 06:51:38;;;;;;;12.03;10.97;;;8.00;99.90;;;8.96;90.90;98349.75;5202034;28;20307;-61
2021/10/16 06:54:12;;;;;;;12.13;10.97;;;8.10;99.90;;;9.02;90.56;98345.09;5203260;28;20225;-63
2021/10/16 06:56:49;;;;;;;12.97;11.87;;;8.20;99.90;;;9.17;89.68;98347.81;5200897;28;20204;-63
2021/10/16 06:59:24;;;;;;;12.47;11.37;;;8.20;99.90;;;9.28;89.79;98352.81;5204323;28;20210;-63
2021/10/16 07:01:57;;;;;;;12.33;11.33;;;8.30;99.90;;;9.42;89.27;98359.75;5200095;28;20201;-63
2021/10/16 07:04:30;;;;;;;12.87;11.57;;;8.50;99.90;;;9.56;87.86;98348.84;5202250;28;20225;-63
2021/10/16 07:07:03;;;;;;;11.90;10.97;;;8.60;99.90;;;9.73;87.53;98350.00;5200969;28;20282;-61
2021/10/16 07:09:36;;;;;;;12.27;11.23;;;8.80;99.90;;;9.87;85.58;98354.38;5200973;28;20753;-63
2021/10/16 07:12:09;;;;;;;11.90;11.00;;;8.90;99.90;;;10.00;85.98;98360.28;5203429;28;20292;-63
2021/10/16 07:14:44;;;;;;;11.87;10.87;;;9.00;99.90;;;10.13;84.80;98355.22;5217788;22;20221;-57
2021/10/16 07:17:18;;;;;;;13.30;12.00;;;9.20;99.90;;;10.12;84.31;98361.09;5202848;28;20292;-56
2021/10/16 07:19:51;;;;;;;13.23;11.93;;;9.20;99.90;;;10.27;83.41;98358.72;5203183;28;20208;-58
2021/10/16 07:22:24;;;;;;;13.10;11.88;;;9.40;99.90;;;10.29;83.50;98365.69;5204303;28;20213;-57
2021/10/16 07:24:57;;;;;;;13.27;11.98;;;9.40;99.90;;;10.18;83.01;98376.84;5203473;28;20218;-56
2021/10/16 07:27:31;;;;;;;13.87;12.53;;;9.30;99.90;;;10.26;82.49;98367.13;5203850;28;20194;-58
2021/10/16 07:30:07;;;;;;;15.05;13.65;;;9.30;99.90;;;10.55;80.91;98374.19;5203525;28;20591;-58
2021/10/16 07:32:40;;;;;;;17.23;15.57;;;9.50;99.90;;;10.36;81.75;98370.44;5201284;28;20260;-58
2021/10/16 07:35:13;;;;;;;15.52;14.13;;;9.50;99.90;;;10.26;82.91;98378.25;5202392;28;20220;-58
2021/10/16 07:37:47;;;;;;;17.02;15.25;;;9.30;99.90;;;10.32;82.77;98381.22;5201451;28;20233;-58
2021/10/16 07:40:20;;;;;;;17.25;15.63;;;9.30;99.90;;;10.37;82.39;98387.53;5201845;28;20202;-58
2021/10/16 07:42:53;;;;;;;19.42;17.48;;;9.30;99.90;;;10.29;82.95;98392.91;5203198;28;20206;-59
2021/10/16 07:45:27;;;;;;;21.27;19.10;;;9.30;99.90;;;9.99;85.62;98390.06;5203543;28;20214;-58
2021/10/16 07:48:00;;;;;;;21.60;19.30;;;9.00;99.90;;;9.97;86.28;98394.16;5200441;28;20305;-59
2021/10/16 07:50:35;;;;;;;20.23;18.13;;;9.00;99.90;;;10.21;84.88;98394.91;5202204;28;20560;-58
2021/10/16 07:53:08;;;;;;;20.05;17.95;;;9.20;99.90;;;10.40;84.38;98391.09;5202188;28;20208;-58
2021/10/16 07:55:41;;;;;;;21.00;18.67;;;9.40;99.90;;;10.38;83.80;98403.75;5204186;28;20313;-58
2021/10/16 07:58:14;;;;;;;21.65;19.35;;;9.40;99.90;;;10.32;84.18;98396.56;5200216;28;20207;-59
2021/10/16 08:00:49;;;;;;;19.80;17.48;;;9.30;99.90;;;10.26;85.54;98397.78;5201677;28;20670;-58
2021/10/16 08:03:22;;;;;;;23.13;19.60;;;9.20;99.90;;;10.23;84.94;98395.91;5201011;28;20197;-58
2021/10/16 08:05:55;;;;;;;21.58;19.17;;;9.30;99.90;;;10.24;85.59;98397.69;5197071;28;20683;-58
2021/10/16 08:08:28;;;;;;;21.65;19.30;;;9.30;99.90;;;10.37;84.85;98402.00;5196492;28;20230;-57
2021/10/16 08:11:02;;;;;;;20.23;18.15;;;9.40;99.90;;;10.42;86.08;98400.63;5202749;28;20550;-58
2021/10/16 08:13:35;;;;;;;20.77;18.58;;;9.50;99.90;;;10.47;85.17;98401.81;5202075;28;20190;-58
2021/10/16 08:16:09;;;;;;;21.63;19.33;;;9.50;99.90;;;10.44;84.02;98396.47;5199337;28;20635;-59
2021/10/16 08:18:42;;;;;;;20.63;18.45;;;9.50;99.90;;;10.46;85.10;98399.16;5201024;28;20200;-57
2021/10/16 08:21:15;;;;;;;23.00;19.15;;;9.50;99.90;;;10.43;85.30;98409.19;5200831;28;20571;-57
2021/10/16 08:23:48;;;;;;;22.85;20.13;;;9.50;99.90;;;10.35;86.20;98399.31;5202683;28;20225;-58
2021/10/16 08:26:21;;;;;;;24.05;21.02;;;9.40;99.90;;;10.35;85.56;98401.00;5196106;28;20228;-58
2021/10/16 08:28:54;;;;;;;23.90;20.30;;;9.40;99.90;;;10.50;85.77;98396.91;5200168;28;20313;-59
2021/10/16 08:31:29;;;;;;;23.30;20.00;;;9.40;99.90;;;10.54;84.31;98400.53;5205328;28;20296;-60
2021/10/16 08:34:02;;;;;;;27.33;22.27;;;9.50;99.90;;;10.62;85.11;98407.06;5202861;28;20624;-59
2021/10/16 08:36:35;;;;;;;28.67;22.50;;;9.60;99.90;;;10.62;85.56;98407.06;5206982;28;20194;-59
2021/10/16 08:39:09;;;;;;;25.98;20.70;;;9.50;99.90;;;10.58;86.31;98405.94;5201189;28;20196;-57
2021/10/16 08:41:43;;;;;;;28.02;21.83;;;9.60;99.90;;;10.72;86.18;98411.97;5201288;28;20612;-58
2021/10/16 08:44:16;;;;;;;27.08;22.10;;;9.70;99.90;;;10.69;85.24;98410.88;5206064;28;20285;-58
2021/10/16 08:46:50;;;;;;;26.92;22.45;;;9.80;99.90;;;10.72;85.56;98409.41;5203736;28;20202;-58
2021/10/16 08:49:25;;;;;;;27.48;22.92;;;9.80;99.90;;;10.79;85.67;98411.59;5203630;28;20320;-58
2021/10/16 08:51:59;;;;;;;27.63;21.90;;;9.80;99.90;;;10.95;83.61;98421.13;5205565;28;20641;-59
2021/10/16 08:54:35;;;;;;;23.50;20.92;;;10.10;99.90;;;11.11;82.74;98423.00;5203906;28;20221;-58
2021/10/16 08:57:08;;;;;;;26.85;21.35;;;10.10;99.90;;;11.17;83.78;98413.16;5204688;28;20304;-58
2021/10/16 08:59:41;;;;;;;25.23;21.08;;;10.20;99.90;;;11.12;84.05;98414.53;5205955;28;20285;-58
2021/10/16 09:02:15;;;;;;;26.60;22.08;;;10.20;99.90;;;11.07;83.33;98415.91;5205180;28;20293;-58
2021/10/16 09:04:48;;;;;;;28.83;22.60;;;10.00;99.90;;;11.11;83.52;98420.44;5206586;28;20217;-58
2021/10/16 09:07:23;;;;;;;25.25;21.58;;;10.10;99.90;;;11.22;83.79;98419.47;5202053;28;20216;-58
2021/10/16 09:09:58;;;;;;;24.35;21.30;;;10.20;99.90;;;11.42;83.38;98409.59;5203703;28;20225;-59
2021/10/16 09:12:44;;;;;;;25.52;21.35;;;10.40;99.90;;;11.50;82.75;98414.41;5199228;28;20423;-59
2021/10/16 09:15:25;;;;;;;25.15;21.65;;;10.50;99.90;;;11.76;81.21;98414.22;5204031;28;20233;-58
2021/10/16 09:18:04;;;;;;;24.52;21.02;;;10.80;99.90;;;11.83;80.80;98403.56;5204838;28;20663;-58
2021/10/16 09:20:38;;;;;;;22.30;19.77;;;10.90;99.90;;;11.75;80.59;98417.59;5200499;28;20281;-58
2021/10/16 09:23:12;;;;;;;24.20;20.33;;;10.80;99.90;;;11.70;81.32;98404.47;5205548;28;20301;-59
2021/10/16 09:25:57;;;;;;;24.73;20.58;;;10.80;99.90;;;11.74;80.46;98411.59;5204553;28;20222;-58
2021/10/16 09:28:30;;;;;;;22.95;19.42;;;10.80;99.90;;;11.76;80.24;98415.13;5205116;28;20202;-59
2021/10/16 09:31:11;;;;;;;22.15;19.70;;;10.80;99.90;;;11.80;80.49;98416.19;5205173;28;20217;-58
2021/10/16 09:33:49;;;;;;;21.63;18.35;;;10.90;99.90;;;11.89;79.87;98403.97;5201995;28;20194;-58
2021/10/16 09:36:23;;;;;;;22.25;19.85;;;10.90;99.90;;;11.75;81.23;98415.03;5205441;28;20309;-59
2021/10/16 09:38:56;;;;;;;21.35;18.08;;;10.80;99.90;;;11.88;81.31;98404.78;5204168;28;20207;-58
2021/10/16 09:41:32;;;;;;;22.10;19.08;;;10.90;99.90;;;12.25;79.27;98409.56;5199010;28;20580;-57
2021/10/16 09:44:20;;;;;;;22.75;19.52;;;11.20;99.90;;;12.25;77.94;98409.56;5203377;28;20728;-58
2021/10/16 09:47:02;;;;;;;22.80;20.40;;;11.30;99.90;;;12.01;80.85;98407.28;5195224;28;20710;-58
2021/10/16 09:49:40;;;;;;;23.83;20.15;;;11.10;99.90;;;11.81;81.03;98402.59;5196340;28;20230;-58
2021/10/16 09:52:16;;;;;;;23.55;19.70;;;11.00;99.90;;;11.99;80.33;98406.31;5200572;28;20304;-58
2021/10/16 09:54:51;;;;;;;23.45;19.92;;;11.10;99.90;;;12.16;79.83;98408.22;5202828;28;20213;-57
2021/10/16 09:57:25;;;;;;;24.48;20.67;;;11.10;99.90;;;12.12;80.09;98403.69;5201478;28;20745;-59
2021/10/16 10:00:00;;;;;;;26.25;19.92;;;11.20;99.90;;;12.26;79.51;98413.88;5203808;28;20225;-59
2021/10/16 10:02:34;;;;;;;25.40;20.58;;;11.30;99.90;;;12.14;80.58;98409.78;5201060;28;20211;-59
2021/10/16 10:05:10;;;;;;;24.30;19.70;;;11.30;99.90;;;12.55;78.32;98411.31;5202790;28;20345;-58
2021/10/16 10:07:43;;;;;;;23.33;19.38;;;11.50;99.90;;;12.38;79.57;98404.34;5199997;28;20285;-57
2021/10/16 10:10:17;;;;;;;22.27;19.50;;;11.50;99.90;;;12.54;79.08;98401.88;5203768;28;20681;-59
2021/10/16 10:12:50;;;;;;;22.15;19.65;;;11.60;99.90;;;12.50;78.68;98399.91;5204085;28;20296;-58
2021/10/16 10:15:24;;;;;;;21.73;19.05;;;11.60;99.90;;;12.55;79.20;98393.38;5204177;28;20251;-57
2021/10/16 10:17:58;;;;;;;21.60;19.27;;;11.60;99.90;;;12.73;78.80;98397.78;5203036;28;20208;-55
2021/10/16 10:20:32;;;;;;;21.88;18.20;;;11.80;99.90;;;12.86;78.52;98400.28;5203185;28;20293;-59
2021/10/16 10:23:20;;;;;;;22.40;19.48;;;12.00;99.90;;;13.05;77.36;98387.69;5197323;28;20201;-59
2021/10/16 10:26:26;;;;;;;22.42;20.13;;;12.20;99.90;;;12.97;77.79;98391.50;5201575;28;20701;-59
2021/10/16 10:29:02;;;;;;;22.63;19.33;;;12.10;99.90;;;12.94;77.88;98383.63;5197731;28;20232;-59
2021/10/16 10:32:03;;;;;;;20.52;18.25;;;12.20;99.90;;;13.16;77.15;98385.72;5203299;28;20221;-59
2021/10/16 10:34:41;;;;;;;20.20;17.58;;;12.30;99.90;;;13.29;76.62;98385.59;5198835;28;20218;-59
2021/10/16 10:37:16;;;;;;;23.38;18.02;;;12.50;99.90;;;13.29;76.43;98384.72;5197614;28;20570;-59
2021/10/16 10:39:56;;;;;;;20.77;18.58;;;12.40;99.90;;;13.33;76.14;98378.94;5202415;28;20288;-59
2021/10/16 10:42:47;;;;;;;20.30;18.15;;;12.50;99.90;;;13.33;76.50;98378.06;5201095;28;20200;-58
2021/10/16 10:45:35;;;;;;;19.48;17.38;;;12.40;99.90;;;13.62;75.68;98383.13;5202197;28;20225;-59
2021/10/16 10:48:15;;;;;;;18.50;15.63;;;12.80;99.90;;;13.82;75.92;98375.56;5202360;28;20233;-59
2021/10/16 10:51:03;;;;;;;17.98;16.05;;;13.20;99.90;;;13.97;75.27;98372.13;5197359;28;20218;-59
2021/10/16 10:53:41;;;;;;;19.17;17.05;;;13.40;99.90;;;14.29;73.50;98370.31;5197398;28;20202;-59